Time;durP1;ratioP1;P1;durP2;ratioP2;P2;SDS_P1;SDS_P2;PMS_P1;PMS_P2;Temp;Humidity;BMP_temperature;BMP_pressure;BME280_temperature;BME280_humidity;BME280_pressure;Samples;Min_cycle;Max_cycle;Signal;HPM_P1;HPM_P2
2022/10/03 00:08:13;;;;;;;4.07;1.70;;;19.90;54.80;;;;;;20481587;29;20035;-75
2022/10/03 00:18:19;;;;;;;;;;;19.80;54.80;;;;;;20561357;28;20046;-75
2022/10/03 00:28:26;;;;;;;5.18;1.80;;;19.80;54.80;;;;;;20622954;28;19906;-75
2022/10/03 00:38:42;;;;;;;4.10;1.02;;;19.80;54.80;;;;;;20658159;28;20489;-75
2022/10/03 00:49:12;;;;;;;2.53;0.80;;;19.80;54.90;;;;;;20651205;28;20042;-75
2022/10/03 00:59:32;;;;;;;3.03;0.75;;;19.80;55.00;;;;;;20589176;28;20042;-75
2022/10/03 01:09:55;;;;;;;2.33;0.85;;;19.80;55.00;;;;;;20537193;28;20191;-75
2022/10/03 01:20:08;;;;;;;2.38;1.02;;;19.70;55.10;;;;;;20479407;29;20063;-74
2022/10/03 01:30:24;;;;;;;5.40;1.17;;;19.70;55.10;;;;;;20476945;29;20043;-75
2022/10/03 01:40:46;;;;;;;2.40;0.70;;;19.70;55.20;;;;;;20495729;28;20067;-75
2022/10/03 01:51:01;;;;;;;3.50;1.00;;;19.70;55.20;;;;;;20988682;23;20401;-75
2022/10/03 02:01:22;;;;;;;2.42;0.60;;;19.70;55.30;;;;;;20640150;28;20451;-73
2022/10/03 02:12:01;;;;;;;3.10;1.02;;;19.70;55.30;;;;;;20655841;28;20034;-75
2022/10/03 02:22:02;;;;;;;2.08;0.77;;;19.60;55.30;;;;;;20659900;28;20034;-74
2022/10/03 02:32:28;;;;;;;3.17;1.10;;;19.60;55.30;;;;;;20652811;28;20105;-77
2022/10/03 02:42:49;;;;;;;3.47;1.45;;;19.60;55.40;;;;;;20650189;28;20285;-76
2022/10/03 02:53:09;;;;;;;7.53;1.77;;;19.60;55.40;;;;;;20671287;28;20037;-76
2022/10/03 03:03:30;;;;;;;2.30;0.73;;;19.60;55.50;;;;;;20616247;28;20050;-77
2022/10/03 03:14:09;;;;;;;6.03;1.35;;;19.50;55.40;;;;;;20651037;28;20046;-75
2022/10/03 03:24:47;;;;;;;2.13;0.65;;;19.50;55.40;;;;;;20667274;28;20670;-76
2022/10/03 03:35:04;;;;;;;4.32;1.15;;;19.50;55.40;;;;;;20665542;28;20041;-76
2022/10/03 03:45:30;;;;;;;2.85;0.60;;;19.50;55.50;;;;;;20631311;28;20042;-76
2022/10/03 03:56:02;;;;;;;6.57;1.92;;;19.50;55.50;;;;;;20617004;28;20038;-77
2022/10/03 04:06:34;;;;;;;5.68;1.30;;;19.40;55.50;;;;;;20661278;28;20039;-76
2022/10/03 04:27:37;;;;;;;2.15;1.10;;;20.20;53.80;;;;;;20678663;28;20030;-75
2022/10/03 04:37:55;;;;;;;6.90;0.80;;;20.40;53.20;;;;;;20663763;28;20397;-78
2022/10/03 04:48:04;;;;;;;2.45;0.90;;;20.70;52.50;;;;;;20645672;28;20350;-75
2022/10/03 04:58:20;;;;;;;4.78;0.98;;;20.90;52.10;;;;;;20647995;28;20038;-77
2022/10/03 05:08:26;;;;;;;;;;;20.90;51.80;;;;;;20674816;28;20035;-75
2022/10/03 05:19:12;;;;;;;2.87;0.47;;;21.00;51.80;;;;;;20674104;28;20008;-76
2022/10/03 05:29:40;;;;;;;2.92;0.43;;;21.00;51.70;;;;;;20637577;28;20790;-75
2022/10/03 05:40:04;;;;;;;4.80;1.17;;;20.90;51.60;;;;;;20651805;28;20065;-75
2022/10/03 05:50:31;;;;;;;3.88;0.80;;;20.90;51.60;;;;;;20652225;28;20038;-73
2022/10/03 06:00:44;;;;;;;2.85;0.80;;;20.80;51.60;;;;;;20586114;28;20114;-75
2022/10/03 06:10:57;;;;;;;3.63;0.73;;;20.80;51.80;;;;;;20650540;28;20035;-76
2022/10/03 06:21:27;;;;;;;3.10;0.80;;;20.70;51.80;;;;;;20664910;28;20080;-74
2022/10/03 06:32:09;;;;;;;2.63;1.02;;;20.70;51.90;;;;;;20630719;28;20440;-73
2022/10/03 06:42:16;;;;;;;3.10;0.63;;;20.60;52.00;;;;;;20652925;28;20050;-76
2022/10/03 06:52:44;;;;;;;2.83;0.95;;;20.60;52.10;;;;;;20646215;28;20122;-74
2022/10/03 07:03:04;;;;;;;3.67;1.00;;;20.50;52.20;;;;;;20633265;28;20033;-76
2022/10/03 07:13:28;;;;;;;5.57;0.82;;;20.60;52.40;;;;;;20640814;28;20046;-73
2022/10/03 07:23:53;;;;;;;4.85;1.40;;;20.50;52.40;;;;;;20643896;28;20062;-77
2022/10/03 07:34:14;;;;;;;3.60;0.80;;;20.50;52.60;;;;;;20660680;28;20045;-72
2022/10/03 07:44:43;;;;;;;4.22;0.70;;;20.40;52.70;;;;;;20577104;28;20058;-74
2022/10/03 07:55:08;;;;;;;4.75;0.70;;;20.40;52.80;;;;;;20560285;28;20070;-75
2022/10/03 08:05:32;;;;;;;2.28;0.88;;;20.30;52.90;;;;;;20610815;28;20406;-76
2022/10/03 08:15:41;;;;;;;5.35;0.80;;;20.40;53.10;;;;;;20660472;28;20056;-75
2022/10/03 08:26:00;;;;;;;2.28;0.75;;;20.30;53.10;;;;;;20639117;28;20069;-72
2022/10/03 08:36:26;;;;;;;3.40;0.88;;;20.40;53.20;;;;;;20658633;28;20212;-75
2022/10/03 08:47:00;;;;;;;0.95;0.45;;;20.30;53.40;;;;;;20639317;28;20046;-74
2022/10/03 08:57:31;;;;;;;1.88;0.75;;;20.40;53.30;;;;;;20639058;28;20035;-74
2022/10/03 09:08:03;;;;;;;6.70;1.25;;;20.40;53.20;;;;;;20623154;28;20073;-74
2022/10/03 09:18:08;;;;;;;4.65;1.25;;;20.40;53.20;;;;;;20615981;28;20046;-74
2022/10/03 09:28:24;;;;;;;3.67;1.00;;;20.50;53.20;;;;;;20628836;28;20405;-73
2022/10/03 09:38:28;;;;;;;1.73;0.60;;;20.50;53.10;;;;;;20637269;28;20434;-73
2022/10/03 09:48:58;;;;;;;4.03;1.00;;;20.50;53.00;;;;;;20659789;28;20065;-74
2022/10/03 09:59:17;;;;;;;3.58;0.98;;;20.60;53.00;;;;;;20633270;28;20066;-73
2022/10/03 10:09:24;;;;;;;2.22;0.80;;;20.60;53.00;;;;;;20664884;28;20397;-72
2022/10/03 10:19:37;;;;;;;4.75;0.93;;;20.60;53.00;;;;;;20648147;28;20129;-73
2022/10/03 10:30:07;;;;;;;1.95;0.40;;;20.60;53.10;;;;;;20633314;28;20061;-78
2022/10/03 10:40:16;;;;;;;3.95;0.82;;;20.60;53.10;;;;;;20653005;28;20420;-84
2022/10/03 10:50:44;;;;;;;3.35;1.08;;;20.60;53.10;;;;;;20657021;28;20038;-77
2022/10/03 11:01:03;;;;;;;2.22;0.70;;;20.60;53.10;;;;;;20669524;28;20038;-87
2022/10/03 11:11:28;;;;;;;2.20;0.60;;;20.60;53.10;;;;;;20601088;28;20034;-86
2022/10/03 11:22:01;;;;;;;2.63;1.00;;;20.70;53.10;;;;;;20668858;28;20092;-85
2022/10/03 11:32:36;;;;;;;3.17;1.13;;;20.70;53.00;;;;;;20668086;28;20165;-85
2022/10/03 11:42:54;;;;;;;2.70;0.95;;;20.80;52.90;;;;;;20658816;28;20045;-84
2022/10/03 11:53:10;;;;;;;1.70;0.75;;;20.90;52.80;;;;;;20660289;28;20061;-80
2022/10/03 12:03:22;;;;;;;2.60;0.40;;;20.90;53.00;;;;;;20632020;28;20133;-78
2022/10/03 12:13:31;;;;;;;2.20;0.82;;;21.00;52.80;;;;;;20558334;28;20035;-80
2022/10/03 12:23:55;;;;;;;2.78;0.55;;;21.10;53.00;;;;;;20617253;28;20035;-78
2022/10/03 12:34:16;;;;;;;2.63;1.20;;;21.00;53.10;;;;;;20646100;28;20034;-79
2022/10/03 12:44:39;;;;;;;2.00;0.70;;;21.00;53.20;;;;;;20671245;28;20053;-78
2022/10/03 12:54:57;;;;;;;4.38;0.73;;;21.10;53.00;;;;;;20675709;28;20389;-79
2022/10/03 13:05:17;;;;;;;4.28;0.85;;;21.30;52.70;;;;;;20660885;28;20038;-80
2022/10/03 13:15:52;;;;;;;2.83;0.90;;;21.40;52.40;;;;;;20654330;28;20810;-78
2022/10/03 13:25:59;;;;;;;7.90;1.08;;;21.50;52.60;;;;;;20673887;28;20045;-75
2022/10/03 13:36:34;;;;;;;3.17;0.90;;;21.50;52.70;;;;;;20657538;28;20476;-80
2022/10/03 13:46:54;;;;;;;2.42;0.70;;;21.50;52.50;;;;;;20653017;28;20552;-74
2022/10/03 13:57:26;;;;;;;2.97;0.65;;;21.60;52.50;;;;;;20634323;28;20034;-75
2022/10/03 14:07:38;;;;;;;1.95;0.63;;;21.60;52.40;;;;;;20650145;28;20046;-77
2022/10/03 14:18:01;;;;;;;2.13;0.63;;;21.60;52.50;;;;;;20654470;28;20437;-77
2022/10/03 14:28:15;;;;;;;1.27;0.45;;;21.60;52.40;;;;;;20639261;28;20029;-78
2022/10/03 14:49:04;;;;;;;1.58;0.60;;;21.60;52.20;;;;;;20666982;28;20030;-77
2022/10/03 14:59:11;;;;;;;2.37;0.60;;;21.60;52.00;;;;;;20611202;28;20030;-74
2022/10/03 15:09:15;;;;;;;1.88;0.88;;;21.60;52.00;;;;;;20591812;28;20034;-75
2022/10/03 15:19:18;;;;;;;1.60;0.60;;;21.60;52.00;;;;;;20646008;28;20560;-72
2022/10/03 15:29:19;;;;;;;7.72;0.93;;;21.60;52.00;;;;;;20629085;28;20385;-77
2022/10/03 15:39:52;;;;;;;3.40;0.50;;;21.50;52.40;;;;;;20646856;28;20058;-76
2022/10/03 15:50:00;;;;;;;2.08;0.75;;;21.50;52.40;;;;;;20644340;28;20096;-73
2022/10/03 16:00:01;;;;;;;2.92;0.95;;;21.50;52.40;;;;;;20642743;28;20038;-76
2022/10/03 16:10:20;;;;;;;1.67;0.65;;;21.50;52.50;;;;;;20636850;28;20405;-76
2022/10/03 16:20:24;;;;;;;2.03;0.70;;;21.40;52.70;;;;;;20644982;28;20140;-74
2022/10/03 16:30:35;;;;;;;3.38;1.05;;;21.40;52.70;;;;;;20653569;28;20120;-71
2022/10/03 16:40:36;;;;;;;1.80;0.57;;;21.30;52.70;;;;;;20642525;28;20034;-74
2022/10/03 16:50:41;;;;;;;1.73;0.70;;;21.30;52.90;;;;;;20626077;28;20034;-73
2022/10/03 17:01:03;;;;;;;2.13;0.82;;;21.30;52.90;;;;;;20631425;28;20034;-71
2022/10/03 17:11:04;;;;;;;1.17;0.60;;;21.30;53.00;;;;;;20588975;28;20034;-71
2022/10/03 17:21:12;;;;;;;2.25;0.65;;;21.20;53.10;;;;;;20648245;28;20034;-72
2022/10/03 17:31:48;;;;;;;1.95;0.75;;;21.20;53.20;;;;;;20613624;28;20046;-73
2022/10/03 17:41:50;;;;;;;1.08;0.65;;;21.20;53.20;;;;;;20632465;28;20049;-70
2022/10/03 17:51:51;;;;;;;2.88;0.75;;;21.20;53.30;;;;;;20634493;28;20523;-70
2022/10/03 18:01:53;;;;;;;1.35;0.68;;;21.10;53.30;;;;;;20626891;28;20030;-73
2022/10/03 18:12:00;;;;;;;1.63;0.68;;;21.10;53.40;;;;;;20618481;28;20092;-70
2022/10/03 18:22:13;;;;;;;0.98;0.55;;;21.10;53.40;;;;;;20647923;28;20123;-70
2022/10/03 18:32:17;;;;;;;1.10;0.73;;;21.10;53.50;;;;;;20663929;28;20050;-70
2022/10/03 18:42:19;;;;;;;1.70;0.53;;;21.10;53.60;;;;;;20663645;28;20030;-70
2022/10/03 18:52:21;;;;;;;1.15;0.60;;;21.00;53.70;;;;;;20629826;28;20463;-71
2022/10/03 19:02:25;;;;;;;2.53;0.90;;;21.00;53.70;;;;;;20631455;28;20492;-73
2022/10/03 19:12:26;;;;;;;2.00;0.55;;;21.00;53.90;;;;;;20628328;28;20129;-70
2022/10/03 19:22:37;;;;;;;1.75;0.90;;;21.00;53.90;;;;;;20644392;28;20096;-72
2022/10/03 19:32:59;;;;;;;0.85;0.57;;;20.90;53.90;;;;;;20608143;28;20092;-73
2022/10/03 19:43:36;;;;;;;2.28;0.70;;;20.90;54.00;;;;;;20658670;28;20046;-70
2022/10/03 19:53:40;;;;;;;0.82;0.52;;;20.90;54.10;;;;;;20640928;28;20105;-73
2022/10/03 20:03:51;;;;;;;1.20;0.60;;;20.90;54.10;;;;;;20658039;28;20038;-71
2022/10/03 20:13:52;;;;;;;2.10;0.60;;;20.80;54.20;;;;;;20609203;28;20065;-72
2022/10/03 20:23:53;;;;;;;1.23;0.60;;;20.80;54.20;;;;;;20642040;28;20066;-70
2022/10/03 20:33:54;;;;;;;2.53;0.50;;;20.80;54.30;;;;;;20625802;28;20040;-71
2022/10/03 20:44:13;;;;;;;0.77;0.50;;;20.80;54.40;;;;;;20626530;28;20643;-71
2022/10/03 20:54:16;;;;;;;1.20;0.63;;;20.70;54.40;;;;;;20663046;28;20058;-71
2022/10/03 21:04:25;;;;;;;1.23;0.43;;;20.70;54.40;;;;;;20664919;28;20473;-70
2022/10/03 21:14:27;;;;;;;1.05;0.45;;;20.70;54.50;;;;;;20624043;28;20042;-71
2022/10/03 21:24:37;;;;;;;1.02;0.45;;;20.70;54.50;;;;;;20638842;28;20050;-70
2022/10/03 21:34:57;;;;;;;1.02;0.68;;;20.60;54.50;;;;;;20635143;28;20038;-70
2022/10/03 21:45:30;;;;;;;2.33;0.95;;;20.60;54.60;;;;;;20622726;28;20469;-70
2022/10/03 21:55:36;;;;;;;1.88;0.80;;;20.60;54.60;;;;;;20671114;28;20491;-70
2022/10/03 22:05:46;;;;;;;1.27;0.73;;;20.60;54.60;;;;;;20667431;28;20084;-70
2022/10/03 22:15:57;;;;;;;1.88;0.70;;;20.50;54.70;;;;;;20648677;28;20105;-72
2022/10/03 22:26:26;;;;;;;3.15;0.82;;;20.60;54.70;;;;;;20648639;28;20639;-69
2022/10/03 22:36:26;;;;;;;1.27;0.77;;;20.50;54.70;;;;;;20618177;28;20042;-72
2022/10/03 22:46:29;;;;;;;1.45;0.75;;;20.50;54.70;;;;;;20647937;28;20052;-72
2022/10/03 22:56:40;;;;;;;1.73;0.60;;;20.50;54.80;;;;;;20636413;28;20100;-72
2022/10/03 23:06:52;;;;;;;3.08;0.82;;;20.50;54.80;;;;;;20630974;28;20042;-71
2022/10/03 23:17:12;;;;;;;2.35;0.93;;;20.40;54.80;;;;;;20614962;28;20100;-71
2022/10/03 23:27:39;;;;;;;2.70;0.90;;;20.50;54.80;;;;;;20646853;28;20056;-70
2022/10/03 23:37:40;;;;;;;1.35;0.50;;;20.40;54.90;;;;;;20666407;28;20096;-70
2022/10/03 23:48:02;;;;;;;1.08;0.40;;;20.40;54.90;;;;;;20643752;28;20046;-71
2022/10/03 23:58:08;;;;;;;0.88;0.43;;;20.40;54.90;;;;;;20548252;28;20134;-70
